sensor_id;sensor_type;location;lat;lon;timestamp;P1;durP1;ratioP1;P2;durP2;ratioP2
68140;SDS011;54941;52.220;104.306;2023-06-22T00:01:36;7.45;;;3.05;;
68140;SDS011;54941;52.220;104.306;2023-06-22T00:04:03;5.78;;;2.83;;
68140;SDS011;54941;52.220;104.306;2023-06-22T00:06:29;4.75;;;2.92;;
68140;SDS011;54941;52.220;104.306;2023-06-22T00:08:55;6.25;;;2.80;;
68140;SDS011;54941;52.220;104.306;2023-06-22T00:11:22;5.35;;;3.15;;
68140;SDS011;54941;52.220;104.306;2023-06-22T00:13:49;6.05;;;3.03;;
68140;SDS011;54941;52.220;104.306;2023-06-22T00:16:16;5.75;;;2.95;;
68140;SDS011;54941;52.220;104.306;2023-06-22T00:18:42;8.27;;;2.80;;
68140;SDS011;54941;52.220;104.306;2023-06-22T00:21:08;5.30;;;3.10;;
68140;SDS011;54941;52.220;104.306;2023-06-22T00:23:35;7.68;;;3.92;;
68140;SDS011;54941;52.220;104.306;2023-06-22T00:26:01;6.65;;;3.50;;
68140;SDS011;54941;52.220;104.306;2023-06-22T00:28:28;7.47;;;3.60;;
68140;SDS011;54941;52.220;104.306;2023-06-22T00:30:55;13.25;;;3.70;;
68140;SDS011;54941;52.220;104.306;2023-06-22T00:33:22;13.45;;;3.97;;
68140;SDS011;54941;52.220;104.306;2023-06-22T00:35:48;11.98;;;3.88;;
68140;SDS011;54941;52.220;104.306;2023-06-22T00:38:14;9.32;;;4.15;;
68140;SDS011;54941;52.220;104.306;2023-06-22T00:40:41;7.15;;;4.22;;
68140;SDS011;54941;52.220;104.306;2023-06-22T00:43:07;5.38;;;3.40;;
68140;SDS011;54941;52.220;104.306;2023-06-22T00:45:33;9.27;;;4.05;;
68140;SDS011;54941;52.220;104.306;2023-06-22T00:48:02;9.63;;;4.00;;
68140;SDS011;54941;52.220;104.306;2023-06-22T00:50:29;8.00;;;4.18;;
68140;SDS011;54941;52.220;104.306;2023-06-22T00:52:57;10.57;;;3.92;;
68140;SDS011;54941;52.220;104.306;2023-06-22T00:55:26;8.15;;;4.20;;
68140;SDS011;54941;52.220;104.306;2023-06-22T00:57:52;10.57;;;4.47;;
68140;SDS011;54941;52.220;104.306;2023-06-22T01:00:19;11.32;;;4.43;;
68140;SDS011;54941;52.220;104.306;2023-06-22T01:02:48;9.38;;;3.97;;
68140;SDS011;54941;52.220;104.306;2023-06-22T01:05:17;11.60;;;4.18;;
68140;SDS011;54941;52.220;104.306;2023-06-22T01:07:45;7.80;;;3.83;;
68140;SDS011;54941;52.220;104.306;2023-06-22T01:10:25;10.43;;;3.65;;
68140;SDS011;54941;52.220;104.306;2023-06-22T01:12:58;7.15;;;4.00;;
68140;SDS011;54941;52.220;104.306;2023-06-22T01:15:30;10.23;;;3.60;;
68140;SDS011;54941;52.220;104.306;2023-06-22T01:17:59;7.85;;;4.28;;
68140;SDS011;54941;52.220;104.306;2023-06-22T01:20:30;12.23;;;3.95;;
68140;SDS011;54941;52.220;104.306;2023-06-22T01:23:05;7.07;;;3.60;;
68140;SDS011;54941;52.220;104.306;2023-06-22T01:25:38;9.80;;;3.83;;
68140;SDS011;54941;52.220;104.306;2023-06-22T01:28:20;8.23;;;3.60;;
68140;SDS011;54941;52.220;104.306;2023-06-22T01:30:51;8.30;;;4.15;;
68140;SDS011;54941;52.220;104.306;2023-06-22T01:33:18;8.65;;;4.22;;
68140;SDS011;54941;52.220;104.306;2023-06-22T01:35:45;7.05;;;3.78;;
68140;SDS011;54941;52.220;104.306;2023-06-22T01:38:12;7.35;;;4.22;;
68140;SDS011;54941;52.220;104.306;2023-06-22T01:40:38;8.07;;;4.15;;
68140;SDS011;54941;52.220;104.306;2023-06-22T01:43:05;9.68;;;4.50;;
68140;SDS011;54941;52.220;104.306;2023-06-22T01:45:32;10.93;;;4.45;;
68140;SDS011;54941;52.220;104.306;2023-06-22T01:48:00;9.57;;;4.80;;
68140;SDS011;54941;52.220;104.306;2023-06-22T01:50:27;9.82;;;4.63;;
68140;SDS011;54941;52.220;104.306;2023-06-22T01:52:54;11.43;;;4.70;;
68140;SDS011;54941;52.220;104.306;2023-06-22T01:55:20;11.45;;;5.00;;
68140;SDS011;54941;52.220;104.306;2023-06-22T01:57:46;11.52;;;5.15;;
68140;SDS011;54941;52.220;104.306;2023-06-22T02:00:14;8.98;;;5.25;;
68140;SDS011;54941;52.220;104.306;2023-06-22T02:02:46;9.43;;;5.40;;
68140;SDS011;54941;52.220;104.306;2023-06-22T02:05:19;9.32;;;4.82;;
68140;SDS011;54941;52.220;104.306;2023-06-22T02:07:46;10.25;;;5.05;;
68140;SDS011;54941;52.220;104.306;2023-06-22T02:10:19;10.13;;;5.15;;
68140;SDS011;54941;52.220;104.306;2023-06-22T02:12:47;9.57;;;4.72;;
68140;SDS011;54941;52.220;104.306;2023-06-22T02:15:15;8.68;;;4.82;;
68140;SDS011;54941;52.220;104.306;2023-06-22T02:17:43;10.30;;;4.47;;
68140;SDS011;54941;52.220;104.306;2023-06-22T02:20:11;9.40;;;5.28;;
68140;SDS011;54941;52.220;104.306;2023-06-22T02:22:40;7.28;;;4.30;;
68140;SDS011;54941;52.220;104.306;2023-06-22T02:25:06;6.60;;;4.35;;
68140;SDS011;54941;52.220;104.306;2023-06-22T02:27:33;8.15;;;4.47;;
68140;SDS011;54941;52.220;104.306;2023-06-22T02:30:00;7.18;;;4.50;;
68140;SDS011;54941;52.220;104.306;2023-06-22T02:32:26;11.90;;;5.18;;
68140;SDS011;54941;52.220;104.306;2023-06-22T02:34:52;8.90;;;4.88;;
68140;SDS011;54941;52.220;104.306;2023-06-22T02:37:18;9.15;;;5.30;;
68140;SDS011;54941;52.220;104.306;2023-06-22T02:39:46;10.48;;;5.55;;
68140;SDS011;54941;52.220;104.306;2023-06-22T02:42:13;7.43;;;4.10;;
68140;SDS011;54941;52.220;104.306;2023-06-22T02:44:39;9.70;;;4.88;;
68140;SDS011;54941;52.220;104.306;2023-06-22T02:47:05;7.13;;;4.60;;
68140;SDS011;54941;52.220;104.306;2023-06-22T02:49:32;6.93;;;4.75;;
68140;SDS011;54941;52.220;104.306;2023-06-22T02:51:58;9.93;;;4.72;;
68140;SDS011;54941;52.220;104.306;2023-06-22T02:54:24;8.48;;;4.88;;
68140;SDS011;54941;52.220;104.306;2023-06-22T02:56:52;10.63;;;5.07;;
68140;SDS011;54941;52.220;104.306;2023-06-22T02:59:18;7.13;;;4.25;;
68140;SDS011;54941;52.220;104.306;2023-06-22T03:01:45;9.13;;;4.93;;
68140;SDS011;54941;52.220;104.306;2023-06-22T03:04:11;12.55;;;4.63;;
68140;SDS011;54941;52.220;104.306;2023-06-22T03:06:38;10.10;;;5.03;;
68140;SDS011;54941;52.220;104.306;2023-06-22T03:09:04;7.03;;;5.03;;
68140;SDS011;54941;52.220;104.306;2023-06-22T03:11:31;8.15;;;5.10;;
68140;SDS011;54941;52.220;104.306;2023-06-22T03:13:59;6.45;;;4.75;;
68140;SDS011;54941;52.220;104.306;2023-06-22T03:16:26;8.88;;;5.30;;
68140;SDS011;54941;52.220;104.306;2023-06-22T03:18:52;8.63;;;5.00;;
68140;SDS011;54941;52.220;104.306;2023-06-22T03:21:19;6.05;;;4.55;;
68140;SDS011;54941;52.220;104.306;2023-06-22T03:23:45;8.48;;;4.80;;
68140;SDS011;54941;52.220;104.306;2023-06-22T03:26:11;7.35;;;5.22;;
68140;SDS011;54941;52.220;104.306;2023-06-22T03:28:38;9.63;;;5.10;;
68140;SDS011;54941;52.220;104.306;2023-06-22T03:31:06;6.80;;;5.03;;
68140;SDS011;54941;52.220;104.306;2023-06-22T03:33:32;8.80;;;5.25;;
68140;SDS011;54941;52.220;104.306;2023-06-22T03:35:58;7.68;;;4.75;;
68140;SDS011;54941;52.220;104.306;2023-06-22T03:38:28;7.85;;;4.85;;
68140;SDS011;54941;52.220;104.306;2023-06-22T03:40:54;9.00;;;5.38;;
68140;SDS011;54941;52.220;104.306;2023-06-22T03:43:20;7.03;;;5.03;;
68140;SDS011;54941;52.220;104.306;2023-06-22T03:45:47;7.40;;;4.85;;
68140;SDS011;54941;52.220;104.306;2023-06-22T03:48:15;8.50;;;4.90;;
68140;SDS011;54941;52.220;104.306;2023-06-22T03:50:41;8.38;;;4.85;;
68140;SDS011;54941;52.220;104.306;2023-06-22T03:53:07;9.63;;;5.68;;
68140;SDS011;54941;52.220;104.306;2023-06-22T03:55:34;9.18;;;5.20;;
68140;SDS011;54941;52.220;104.306;2023-06-22T03:58:00;9.45;;;5.00;;
68140;SDS011;54941;52.220;104.306;2023-06-22T04:00:26;11.05;;;4.90;;
68140;SDS011;54941;52.220;104.306;2023-06-22T04:02:52;8.02;;;5.10;;
68140;SDS011;54941;52.220;104.306;2023-06-22T04:05:20;9.50;;;4.90;;
68140;SDS011;54941;52.220;104.306;2023-06-22T04:07:46;9.60;;;5.32;;
68140;SDS011;54941;52.220;104.306;2023-06-22T04:10:13;8.43;;;5.30;;
68140;SDS011;54941;52.220;104.306;2023-06-22T04:12:39;9.52;;;5.70;;
68140;SDS011;54941;52.220;104.306;2023-06-22T04:15:06;8.98;;;5.35;;
68140;SDS011;54941;52.220;104.306;2023-06-22T04:17:33;13.25;;;6.60;;
68140;SDS011;54941;52.220;104.306;2023-06-22T04:19:59;10.35;;;5.70;;
68140;SDS011;54941;52.220;104.306;2023-06-22T04:22:27;10.23;;;5.65;;
68140;SDS011;54941;52.220;104.306;2023-06-22T04:24:53;9.18;;;5.57;;
68140;SDS011;54941;52.220;104.306;2023-06-22T04:27:20;13.85;;;5.97;;
68140;SDS011;54941;52.220;104.306;2023-06-22T04:29:46;11.60;;;6.22;;
68140;SDS011;54941;52.220;104.306;2023-06-22T04:32:12;11.65;;;6.15;;
68140;SDS011;54941;52.220;104.306;2023-06-22T04:34:38;12.23;;;6.32;;
68140;SDS011;54941;52.220;104.306;2023-06-22T04:37:05;15.00;;;6.30;;
68140;SDS011;54941;52.220;104.306;2023-06-22T04:39:33;11.15;;;6.32;;
68140;SDS011;54941;52.220;104.306;2023-06-22T04:41:59;18.60;;;7.05;;
68140;SDS011;54941;52.220;104.306;2023-06-22T04:44:25;9.55;;;5.82;;
68140;SDS011;54941;52.220;104.306;2023-06-22T04:46:52;11.15;;;6.38;;
68140;SDS011;54941;52.220;104.306;2023-06-22T04:49:20;12.38;;;6.30;;
68140;SDS011;54941;52.220;104.306;2023-06-22T04:51:46;11.48;;;6.25;;
68140;SDS011;54941;52.220;104.306;2023-06-22T04:54:13;10.55;;;6.05;;
68140;SDS011;54941;52.220;104.306;2023-06-22T04:56:41;12.93;;;6.13;;
68140;SDS011;54941;52.220;104.306;2023-06-22T04:59:07;12.13;;;6.50;;
68140;SDS011;54941;52.220;104.306;2023-06-22T05:01:34;13.00;;;6.65;;
68140;SDS011;54941;52.220;104.306;2023-06-22T05:04:00;13.85;;;6.55;;
68140;SDS011;54941;52.220;104.306;2023-06-22T05:06:27;14.10;;;6.43;;
68140;SDS011;54941;52.220;104.306;2023-06-22T05:08:54;15.75;;;7.00;;
68140;SDS011;54941;52.220;104.306;2023-06-22T05:11:21;11.90;;;6.28;;
68140;SDS011;54941;52.220;104.306;2023-06-22T05:13:49;10.77;;;6.28;;
68140;SDS011;54941;52.220;104.306;2023-06-22T05:16:15;14.75;;;7.07;;
68140;SDS011;54941;52.220;104.306;2023-06-22T05:18:41;11.73;;;6.45;;
68140;SDS011;54941;52.220;104.306;2023-06-22T05:21:08;11.43;;;6.70;;
68140;SDS011;54941;52.220;104.306;2023-06-22T05:23:34;11.75;;;6.70;;
68140;SDS011;54941;52.220;104.306;2023-06-22T05:26:00;13.02;;;6.88;;
68140;SDS011;54941;52.220;104.306;2023-06-22T05:28:27;9.93;;;6.93;;
68140;SDS011;54941;52.220;104.306;2023-06-22T05:30:55;11.93;;;6.63;;
68140;SDS011;54941;52.220;104.306;2023-06-22T05:33:21;14.75;;;7.10;;
68140;SDS011;54941;52.220;104.306;2023-06-22T05:35:47;10.15;;;6.32;;
68140;SDS011;54941;52.220;104.306;2023-06-22T05:38:14;13.57;;;7.15;;
68140;SDS011;54941;52.220;104.306;2023-06-22T05:40:40;11.13;;;7.10;;
68140;SDS011;54941;52.220;104.306;2023-06-22T05:43:06;14.73;;;7.28;;
68140;SDS011;54941;52.220;104.306;2023-06-22T05:45:33;15.95;;;7.13;;
68140;SDS011;54941;52.220;104.306;2023-06-22T05:48:00;14.20;;;6.78;;
68140;SDS011;54941;52.220;104.306;2023-06-22T05:50:27;14.50;;;7.30;;
68140;SDS011;54941;52.220;104.306;2023-06-22T05:52:53;15.85;;;7.45;;
68140;SDS011;54941;52.220;104.306;2023-06-22T05:55:19;10.50;;;6.78;;
68140;SDS011;54941;52.220;104.306;2023-06-22T05:57:46;13.23;;;7.65;;
68140;SDS011;54941;52.220;104.306;2023-06-22T06:00:12;15.85;;;7.68;;
68140;SDS011;54941;52.220;104.306;2023-06-22T06:02:39;14.90;;;7.22;;
68140;SDS011;54941;52.220;104.306;2023-06-22T06:05:07;18.85;;;8.15;;
68140;SDS011;54941;52.220;104.306;2023-06-22T06:07:34;16.27;;;8.18;;
68140;SDS011;54941;52.220;104.306;2023-06-22T06:10:00;16.73;;;7.82;;
68140;SDS011;54941;52.220;104.306;2023-06-22T06:12:26;13.45;;;7.70;;
68140;SDS011;54941;52.220;104.306;2023-06-22T06:14:52;13.18;;;7.30;;
68140;SDS011;54941;52.220;104.306;2023-06-22T06:17:19;14.20;;;7.07;;
68140;SDS011;54941;52.220;104.306;2023-06-22T06:19:45;14.38;;;7.38;;
68140;SDS011;54941;52.220;104.306;2023-06-22T06:22:13;15.00;;;7.45;;
68140;SDS011;54941;52.220;104.306;2023-06-22T06:24:39;13.48;;;7.78;;
68140;SDS011;54941;52.220;104.306;2023-06-22T06:27:06;18.05;;;7.68;;
68140;SDS011;54941;52.220;104.306;2023-06-22T06:29:32;14.52;;;7.38;;
68140;SDS011;54941;52.220;104.306;2023-06-22T06:31:58;13.32;;;7.22;;
68140;SDS011;54941;52.220;104.306;2023-06-22T06:34:25;14.80;;;7.18;;
68140;SDS011;54941;52.220;104.306;2023-06-22T06:36:51;11.02;;;6.75;;
68140;SDS011;54941;52.220;104.306;2023-06-22T06:39:19;13.73;;;7.60;;
68140;SDS011;54941;52.220;104.306;2023-06-22T06:41:45;12.50;;;7.68;;
68140;SDS011;54941;52.220;104.306;2023-06-22T06:44:11;11.80;;;6.75;;
68140;SDS011;54941;52.220;104.306;2023-06-22T06:46:38;11.55;;;7.22;;
68140;SDS011;54941;52.220;104.306;2023-06-22T06:49:05;14.05;;;6.80;;
68140;SDS011;54941;52.220;104.306;2023-06-22T06:51:31;15.38;;;7.45;;
68140;SDS011;54941;52.220;104.306;2023-06-22T06:53:57;15.35;;;8.98;;
68140;SDS011;54941;52.220;104.306;2023-06-22T06:56:25;15.40;;;8.43;;
68140;SDS011;54941;52.220;104.306;2023-06-22T06:58:51;13.82;;;8.68;;
68140;SDS011;54941;52.220;104.306;2023-06-22T07:01:18;17.33;;;9.52;;
68140;SDS011;54941;52.220;104.306;2023-06-22T07:03:44;13.82;;;9.25;;
68140;SDS011;54941;52.220;104.306;2023-06-22T07:06:10;15.52;;;9.00;;
68140;SDS011;54941;52.220;104.306;2023-06-22T07:08:38;14.40;;;9.27;;
68140;SDS011;54941;52.220;104.306;2023-06-22T07:11:04;14.68;;;9.38;;
68140;SDS011;54941;52.220;104.306;2023-06-22T07:13:32;17.38;;;9.95;;
68140;SDS011;54941;52.220;104.306;2023-06-22T07:15:59;14.68;;;9.68;;
68140;SDS011;54941;52.220;104.306;2023-06-22T07:18:25;13.20;;;9.60;;
68140;SDS011;54941;52.220;104.306;2023-06-22T07:20:51;15.63;;;10.00;;
68140;SDS011;54941;52.220;104.306;2023-06-22T07:23:18;16.20;;;10.40;;
68140;SDS011;54941;52.220;104.306;2023-06-22T07:25:44;11.93;;;8.77;;
68140;SDS011;54941;52.220;104.306;2023-06-22T07:28:11;12.60;;;8.13;;
68140;SDS011;54941;52.220;104.306;2023-06-22T07:30:39;11.85;;;8.60;;
68140;SDS011;54941;52.220;104.306;2023-06-22T07:33:05;13.77;;;6.93;;
68140;SDS011;54941;52.220;104.306;2023-06-22T07:35:31;12.02;;;6.22;;
68140;SDS011;54941;52.220;104.306;2023-06-22T07:37:58;7.25;;;5.38;;
68140;SDS011;54941;52.220;104.306;2023-06-22T07:40:24;9.50;;;5.75;;
68140;SDS011;54941;52.220;104.306;2023-06-22T07:42:50;10.43;;;6.28;;
68140;SDS011;54941;52.220;104.306;2023-06-22T07:45:17;8.77;;;5.32;;
68140;SDS011;54941;52.220;104.306;2023-06-22T07:47:45;9.32;;;5.60;;
68140;SDS011;54941;52.220;104.306;2023-06-22T07:50:11;10.82;;;5.53;;
68140;SDS011;54941;52.220;104.306;2023-06-22T07:52:37;26.27;;;6.55;;
68140;SDS011;54941;52.220;104.306;2023-06-22T07:55:04;14.45;;;6.07;;
68140;SDS011;54941;52.220;104.306;2023-06-22T07:57:31;25.85;;;7.30;;
68140;SDS011;54941;52.220;104.306;2023-06-22T07:59:57;15.52;;;6.93;;
68140;SDS011;54941;52.220;104.306;2023-06-22T08:02:23;17.67;;;6.68;;
68140;SDS011;54941;52.220;104.306;2023-06-22T08:04:51;17.90;;;6.35;;
68140;SDS011;54941;52.220;104.306;2023-06-22T08:07:18;109.05;;;12.68;;
68140;SDS011;54941;52.220;104.306;2023-06-22T08:09:46;18.88;;;7.38;;
68140;SDS011;54941;52.220;104.306;2023-06-22T08:12:13;17.52;;;7.20;;
68140;SDS011;54941;52.220;104.306;2023-06-22T08:14:39;30.58;;;8.25;;
68140;SDS011;54941;52.220;104.306;2023-06-22T08:17:07;13.20;;;7.22;;
68140;SDS011;54941;52.220;104.306;2023-06-22T08:19:33;14.65;;;6.68;;
68140;SDS011;54941;52.220;104.306;2023-06-22T08:22:01;13.88;;;7.57;;
68140;SDS011;54941;52.220;104.306;2023-06-22T08:24:28;13.32;;;7.72;;
68140;SDS011;54941;52.220;104.306;2023-06-22T08:26:54;13.65;;;6.82;;
68140;SDS011;54941;52.220;104.306;2023-06-22T08:29:20;14.70;;;7.32;;
68140;SDS011;54941;52.220;104.306;2023-06-22T08:31:47;13.30;;;6.97;;
68140;SDS011;54941;52.220;104.306;2023-06-22T08:34:13;13.50;;;7.10;;
68140;SDS011;54941;52.220;104.306;2023-06-22T08:36:39;13.13;;;6.93;;
68140;SDS011;54941;52.220;104.306;2023-06-22T08:39:07;10.60;;;6.93;;
68140;SDS011;54941;52.220;104.306;2023-06-22T08:41:33;13.93;;;7.53;;
68140;SDS011;54941;52.220;104.306;2023-06-22T08:44:00;11.30;;;7.55;;
68140;SDS011;54941;52.220;104.306;2023-06-22T08:46:26;11.75;;;7.50;;
68140;SDS011;54941;52.220;104.306;2023-06-22T08:48:52;14.10;;;6.93;;
68140;SDS011;54941;52.220;104.306;2023-06-22T08:51:19;15.43;;;7.22;;
68140;SDS011;54941;52.220;104.306;2023-06-22T08:53:45;13.07;;;6.97;;
68140;SDS011;54941;52.220;104.306;2023-06-22T08:56:13;15.25;;;6.75;;
68140;SDS011;54941;52.220;104.306;2023-06-22T08:58:39;10.73;;;6.53;;
68140;SDS011;54941;52.220;104.306;2023-06-22T09:01:06;14.25;;;6.60;;
68140;SDS011;54941;52.220;104.306;2023-06-22T09:03:32;13.13;;;6.93;;
68140;SDS011;54941;52.220;104.306;2023-06-22T09:05:58;16.08;;;7.05;;
68140;SDS011;54941;52.220;104.306;2023-06-22T09:08:24;10.55;;;6.82;;
68140;SDS011;54941;52.220;104.306;2023-06-22T09:10:51;10.10;;;6.60;;
68140;SDS011;54941;52.220;104.306;2023-06-22T09:13:19;10.88;;;7.20;;
68140;SDS011;54941;52.220;104.306;2023-06-22T09:15:45;13.38;;;7.35;;
68140;SDS011;54941;52.220;104.306;2023-06-22T09:18:13;14.13;;;7.97;;
68140;SDS011;54941;52.220;104.306;2023-06-22T09:20:39;14.65;;;7.63;;
68140;SDS011;54941;52.220;104.306;2023-06-22T09:23:06;14.70;;;7.90;;
68140;SDS011;54941;52.220;104.306;2023-06-22T09:25:32;14.85;;;8.05;;
68140;SDS011;54941;52.220;104.306;2023-06-22T09:27:58;19.02;;;7.78;;
68140;SDS011;54941;52.220;104.306;2023-06-22T09:30:26;13.52;;;7.53;;
68140;SDS011;54941;52.220;104.306;2023-06-22T09:32:52;14.80;;;8.18;;
68140;SDS011;54941;52.220;104.306;2023-06-22T09:35:19;13.45;;;7.35;;
68140;SDS011;54941;52.220;104.306;2023-06-22T09:37:45;10.00;;;6.78;;
68140;SDS011;54941;52.220;104.306;2023-06-22T09:40:11;12.38;;;7.25;;
68140;SDS011;54941;52.220;104.306;2023-06-22T09:42:38;19.63;;;7.85;;
68140;SDS011;54941;52.220;104.306;2023-06-22T09:45:05;15.68;;;7.60;;
68140;SDS011;54941;52.220;104.306;2023-06-22T09:47:35;12.88;;;7.78;;
68140;SDS011;54941;52.220;104.306;2023-06-22T09:50:02;14.00;;;7.90;;
68140;SDS011;54941;52.220;104.306;2023-06-22T09:52:31;15.02;;;7.60;;
68140;SDS011;54941;52.220;104.306;2023-06-22T09:54:58;14.07;;;7.60;;
68140;SDS011;54941;52.220;104.306;2023-06-22T09:57:24;24.95;;;12.63;;
68140;SDS011;54941;52.220;104.306;2023-06-22T09:59:50;15.15;;;9.48;;
68140;SDS011;54941;52.220;104.306;2023-06-22T10:02:17;19.50;;;10.27;;
68140;SDS011;54941;52.220;104.306;2023-06-22T10:04:44;20.08;;;8.25;;
68140;SDS011;54941;52.220;104.306;2023-06-22T10:07:11;11.80;;;7.60;;
68140;SDS011;54941;52.220;104.306;2023-06-22T10:09:37;13.35;;;8.07;;
68140;SDS011;54941;52.220;104.306;2023-06-22T10:12:03;15.82;;;9.05;;
68140;SDS011;54941;52.220;104.306;2023-06-22T10:14:30;20.02;;;10.23;;
68140;SDS011;54941;52.220;104.306;2023-06-22T10:16:56;16.77;;;9.27;;
68140;SDS011;54941;52.220;104.306;2023-06-22T10:19:23;17.38;;;8.73;;
68140;SDS011;54941;52.220;104.306;2023-06-22T10:21:50;16.42;;;9.30;;
68140;SDS011;54941;52.220;104.306;2023-06-22T10:24:17;14.02;;;8.77;;
68140;SDS011;54941;52.220;104.306;2023-06-22T10:26:43;15.10;;;8.43;;
68140;SDS011;54941;52.220;104.306;2023-06-22T10:29:09;15.05;;;9.45;;
68140;SDS011;54941;52.220;104.306;2023-06-22T10:31:36;18.17;;;9.05;;
68140;SDS011;54941;52.220;104.306;2023-06-22T10:34:02;14.65;;;8.75;;
68140;SDS011;54941;52.220;104.306;2023-06-22T10:36:28;14.35;;;8.75;;
68140;SDS011;54941;52.220;104.306;2023-06-22T10:38:56;13.77;;;8.70;;
68140;SDS011;54941;52.220;104.306;2023-06-22T10:41:22;15.50;;;8.98;;
68140;SDS011;54941;52.220;104.306;2023-06-22T10:43:49;16.70;;;9.82;;
68140;SDS011;54941;52.220;104.306;2023-06-22T10:46:15;18.65;;;9.90;;
68140;SDS011;54941;52.220;104.306;2023-06-22T10:48:41;16.73;;;10.00;;
68140;SDS011;54941;52.220;104.306;2023-06-22T10:51:08;16.02;;;9.60;;
68140;SDS011;54941;52.220;104.306;2023-06-22T10:53:34;14.75;;;9.10;;
68140;SDS011;54941;52.220;104.306;2023-06-22T10:56:02;16.33;;;9.73;;
68140;SDS011;54941;52.220;104.306;2023-06-22T10:58:29;18.33;;;12.35;;
68140;SDS011;54941;52.220;104.306;2023-06-22T11:00:55;19.83;;;12.18;;
68140;SDS011;54941;52.220;104.306;2023-06-22T11:03:22;16.75;;;10.45;;
68140;SDS011;54941;52.220;104.306;2023-06-22T11:05:48;21.05;;;12.02;;
68140;SDS011;54941;52.220;104.306;2023-06-22T11:08:16;17.88;;;11.25;;
68140;SDS011;54941;52.220;104.306;2023-06-22T11:10:43;19.13;;;11.10;;
68140;SDS011;54941;52.220;104.306;2023-06-22T11:13:11;17.95;;;11.60;;
68140;SDS011;54941;52.220;104.306;2023-06-22T11:15:38;17.58;;;11.30;;
68140;SDS011;54941;52.220;104.306;2023-06-22T11:18:05;16.63;;;11.25;;
68140;SDS011;54941;52.220;104.306;2023-06-22T11:20:31;28.40;;;12.32;;
68140;SDS011;54941;52.220;104.306;2023-06-22T11:22:57;15.98;;;10.95;;
68140;SDS011;54941;52.220;104.306;2023-06-22T11:25:24;19.65;;;11.60;;
68140;SDS011;54941;52.220;104.306;2023-06-22T11:27:50;20.27;;;11.07;;
68140;SDS011;54941;52.220;104.306;2023-06-22T11:30:18;15.40;;;10.85;;
68140;SDS011;54941;52.220;104.306;2023-06-22T11:32:45;18.02;;;10.98;;
68140;SDS011;54941;52.220;104.306;2023-06-22T11:35:11;15.80;;;11.07;;
68140;SDS011;54941;52.220;104.306;2023-06-22T11:37:37;16.98;;;11.45;;
68140;SDS011;54941;52.220;104.306;2023-06-22T11:40:04;18.55;;;11.95;;
68140;SDS011;54941;52.220;104.306;2023-06-22T11:42:31;20.77;;;12.48;;
68140;SDS011;54941;52.220;104.306;2023-06-22T11:44:58;16.65;;;11.82;;
68140;SDS011;54941;52.220;104.306;2023-06-22T11:47:25;19.65;;;11.93;;
68140;SDS011;54941;52.220;104.306;2023-06-22T11:49:52;16.85;;;11.60;;
68140;SDS011;54941;52.220;104.306;2023-06-22T11:52:18;18.55;;;11.80;;
68140;SDS011;54941;52.220;104.306;2023-06-22T11:54:44;18.17;;;13.02;;
68140;SDS011;54941;52.220;104.306;2023-06-22T11:57:11;21.20;;;13.13;;
68140;SDS011;54941;52.220;104.306;2023-06-22T11:59:37;21.13;;;12.05;;
68140;SDS011;54941;52.220;104.306;2023-06-22T12:02:03;22.58;;;13.77;;
68140;SDS011;54941;52.220;104.306;2023-06-22T12:04:32;22.85;;;13.85;;
68140;SDS011;54941;52.220;104.306;2023-06-22T12:06:58;22.10;;;14.05;;
68140;SDS011;54941;52.220;104.306;2023-06-22T12:09:24;20.00;;;13.32;;
68140;SDS011;54941;52.220;104.306;2023-06-22T12:11:51;27.05;;;15.75;;
68140;SDS011;54941;52.220;104.306;2023-06-22T12:14:17;23.50;;;15.60;;
68140;SDS011;54941;52.220;104.306;2023-06-22T12:16:43;23.20;;;15.38;;
68140;SDS011;54941;52.220;104.306;2023-06-22T12:19:10;20.83;;;13.77;;
68140;SDS011;54941;52.220;104.306;2023-06-22T12:21:38;22.10;;;14.07;;
68140;SDS011;54941;52.220;104.306;2023-06-22T12:24:05;23.42;;;15.43;;
68140;SDS011;54941;52.220;104.306;2023-06-22T12:26:31;21.13;;;14.95;;
68140;SDS011;54941;52.220;104.306;2023-06-22T12:28:57;24.70;;;15.55;;
68140;SDS011;54941;52.220;104.306;2023-06-22T12:31:24;22.02;;;15.32;;
68140;SDS011;54941;52.220;104.306;2023-06-22T12:33:50;22.50;;;15.95;;
68140;SDS011;54941;52.220;104.306;2023-06-22T12:36:16;22.67;;;15.70;;
68140;SDS011;54941;52.220;104.306;2023-06-22T12:38:44;24.77;;;16.27;;
68140;SDS011;54941;52.220;104.306;2023-06-22T12:41:10;23.63;;;16.35;;
68140;SDS011;54941;52.220;104.306;2023-06-22T12:43:37;23.90;;;15.65;;
68140;SDS011;54941;52.220;104.306;2023-06-22T12:46:03;21.67;;;14.88;;
68140;SDS011;54941;52.220;104.306;2023-06-22T12:48:30;22.15;;;15.00;;
68140;SDS011;54941;52.220;104.306;2023-06-22T12:50:56;24.10;;;15.35;;
68140;SDS011;54941;52.220;104.306;2023-06-22T12:53:22;26.25;;;16.38;;
68140;SDS011;54941;52.220;104.306;2023-06-22T12:55:50;22.45;;;15.70;;
68140;SDS011;54941;52.220;104.306;2023-06-22T12:58:17;23.77;;;16.30;;
68140;SDS011;54941;52.220;104.306;2023-06-22T13:00:43;21.75;;;15.20;;
68140;SDS011;54941;52.220;104.306;2023-06-22T13:03:09;25.52;;;16.60;;
68140;SDS011;54941;52.220;104.306;2023-06-22T13:05:36;25.42;;;16.60;;
68140;SDS011;54941;52.220;104.306;2023-06-22T13:08:02;25.95;;;16.60;;
68140;SDS011;54941;52.220;104.306;2023-06-22T13:10:28;24.95;;;16.85;;
68140;SDS011;54941;52.220;104.306;2023-06-22T13:12:56;27.45;;;17.20;;
68140;SDS011;54941;52.220;104.306;2023-06-22T13:15:23;25.65;;;16.95;;
68140;SDS011;54941;52.220;104.306;2023-06-22T13:17:49;22.08;;;15.27;;
68140;SDS011;54941;52.220;104.306;2023-06-22T13:20:15;24.67;;;17.40;;
68140;SDS011;54941;52.220;104.306;2023-06-22T13:22:41;24.77;;;16.48;;
68140;SDS011;54941;52.220;104.306;2023-06-22T13:25:08;22.13;;;15.63;;
68140;SDS011;54941;52.220;104.306;2023-06-22T13:27:35;21.88;;;15.07;;
68140;SDS011;54941;52.220;104.306;2023-06-22T13:30:03;20.88;;;14.38;;
68140;SDS011;54941;52.220;104.306;2023-06-22T13:32:32;24.02;;;16.13;;
68140;SDS011;54941;52.220;104.306;2023-06-22T13:34:59;23.98;;;15.65;;
68140;SDS011;54941;52.220;104.306;2023-06-22T13:37:25;22.55;;;16.50;;
68140;SDS011;54941;52.220;104.306;2023-06-22T13:39:54;25.23;;;16.60;;
68140;SDS011;54941;52.220;104.306;2023-06-22T13:42:20;24.80;;;17.17;;
68140;SDS011;54941;52.220;104.306;2023-06-22T13:44:46;22.85;;;17.10;;
68140;SDS011;54941;52.220;104.306;2023-06-22T13:47:14;25.35;;;16.95;;
68140;SDS011;54941;52.220;104.306;2023-06-22T13:49:40;24.70;;;17.48;;
68140;SDS011;54941;52.220;104.306;2023-06-22T13:52:07;25.67;;;17.05;;
68140;SDS011;54941;52.220;104.306;2023-06-22T13:54:33;27.70;;;18.30;;
68140;SDS011;54941;52.220;104.306;2023-06-22T13:57:00;30.55;;;19.27;;
68140;SDS011;54941;52.220;104.306;2023-06-22T13:59:26;32.05;;;20.80;;
68140;SDS011;54941;52.220;104.306;2023-06-22T14:01:52;32.08;;;21.20;;
68140;SDS011;54941;52.220;104.306;2023-06-22T14:04:21;31.58;;;21.75;;
68140;SDS011;54941;52.220;104.306;2023-06-22T14:06:48;38.22;;;23.25;;